createdAt,value
2023-06-17T00:02:00.147Z,62.74
2023-06-17T00:04:28.000Z,63.27
2023-06-17T00:06:55.196Z,64.16
2023-06-17T00:09:22.697Z,63.74
2023-06-17T00:11:50.336Z,61.90
2023-06-17T00:14:18.272Z,61.89
2023-06-17T00:16:45.368Z,62.34
2023-06-17T00:19:17.196Z,62.99
2023-06-17T00:21:45.410Z,63.19
2023-06-17T00:24:15.645Z,64.05
2023-06-17T00:26:43.057Z,64.00
2023-06-17T00:29:10.718Z,62.93
2023-06-17T00:31:38.280Z,62.92
2023-06-17T00:34:05.604Z,63.32
2023-06-17T00:36:32.889Z,63.92
2023-06-17T00:39:00.019Z,64.72
2023-06-17T00:41:27.336Z,64.80
2023-06-17T00:43:54.437Z,63.50
2023-06-17T00:46:33.779Z,63.19
2023-06-17T00:49:02.141Z,63.51
2023-06-17T00:51:29.646Z,64.06
2023-06-17T00:53:57.163Z,64.94
2023-06-17T00:56:26.490Z,64.89
2023-06-17T00:58:54.730Z,63.61
2023-06-17T01:01:21.862Z,63.05
2023-06-17T01:03:51.190Z,63.43
2023-06-17T01:06:48.453Z,63.62
2023-06-17T01:09:17.344Z,64.58
2023-06-17T01:11:44.874Z,64.43
2023-06-17T01:14:12.023Z,63.30
2023-06-17T01:16:44.045Z,62.92
2023-06-17T01:19:19.706Z,63.40
2023-06-17T01:21:50.483Z,63.87
2023-06-17T01:24:28.511Z,64.75
2023-06-17T01:26:57.719Z,64.60
2023-06-17T01:29:25.285Z,63.40
2023-06-17T01:31:53.002Z,62.98
2023-06-17T01:34:21.164Z,62.96
2023-06-17T01:36:48.468Z,63.91
2023-06-17T01:39:17.198Z,64.77
2023-06-17T01:41:47.654Z,64.70
2023-06-17T01:44:14.713Z,63.12
2023-06-17T01:46:43.199Z,62.88
2023-06-17T01:49:10.307Z,62.98
2023-06-17T01:51:39.398Z,63.77
2023-06-17T01:54:07.319Z,64.67
2023-06-17T01:56:34.687Z,64.05
2023-06-17T01:59:01.986Z,62.83
2023-06-17T02:01:29.908Z,62.51
2023-06-17T02:03:57.699Z,63.07
2023-06-17T02:06:25.214Z,63.77
2023-06-17T02:08:54.081Z,64.50
2023-06-17T02:11:21.519Z,64.27
2023-06-17T02:13:48.657Z,63.25
2023-06-17T02:16:16.211Z,62.78
2023-06-17T02:18:43.705Z,63.05
2023-06-17T02:21:10.966Z,63.71
2023-06-17T02:23:38.148Z,64.72
2023-06-17T02:26:05.230Z,64.52
2023-06-17T02:28:33.665Z,63.40
2023-06-17T02:31:00.774Z,62.52
2023-06-17T02:33:29.100Z,62.80
2023-06-17T02:35:56.286Z,63.62
2023-06-17T02:38:25.821Z,64.39
2023-06-17T02:40:53.828Z,64.38
2023-06-17T02:43:21.143Z,63.22
2023-06-17T02:45:48.200Z,62.68
2023-06-17T02:48:15.247Z,62.96
2023-06-17T02:50:43.073Z,63.67
2023-06-17T02:53:12.136Z,64.71
2023-06-17T02:55:39.452Z,64.64
2023-06-17T02:58:16.908Z,63.29
2023-06-17T03:00:46.774Z,62.98
2023-06-17T03:03:14.384Z,62.32
2023-06-17T03:05:44.832Z,63.50
2023-06-17T03:08:12.244Z,64.57
2023-06-17T03:10:39.472Z,64.38
2023-06-17T03:13:11.413Z,62.90
2023-06-17T03:15:42.284Z,62.68
2023-06-17T03:18:10.221Z,62.94
2023-06-17T03:20:39.934Z,63.64
2023-06-17T03:23:10.851Z,64.62
2023-06-17T03:25:39.424Z,64.45
2023-06-17T03:28:07.201Z,63.04
2023-06-17T03:30:35.691Z,62.62
2023-06-17T03:33:03.221Z,62.85
2023-06-17T03:35:30.889Z,63.58
2023-06-17T03:37:58.392Z,64.46
2023-06-17T03:40:26.723Z,63.90
2023-06-17T03:42:55.581Z,62.30
2023-06-17T03:45:23.309Z,62.27
2023-06-17T03:47:51.276Z,62.79
2023-06-17T03:50:18.517Z,63.34
2023-06-17T03:52:47.058Z,64.04
2023-06-17T03:55:14.503Z,63.88
2023-06-17T03:57:41.829Z,62.99
2023-06-17T04:00:09.461Z,62.70
2023-06-17T04:02:47.057Z,62.61
2023-06-17T04:05:21.688Z,63.16
2023-06-17T04:07:50.232Z,64.11
2023-06-17T04:10:17.691Z,63.96
2023-06-17T04:12:44.995Z,62.40
2023-06-17T04:15:13.044Z,61.89
2023-06-17T04:17:40.639Z,62.45
2023-06-17T04:20:12.496Z,62.82
2023-06-17T04:22:41.293Z,64.19
2023-06-17T04:25:13.006Z,63.88
2023-06-17T04:27:45.710Z,62.73
2023-06-17T04:30:16.408Z,62.56
2023-06-17T04:32:45.172Z,62.87
2023-06-17T04:35:14.526Z,63.27
2023-06-17T04:37:55.293Z,63.97
2023-06-17T04:40:24.560Z,64.14
2023-06-17T04:42:52.314Z,62.95
2023-06-17T04:45:21.001Z,62.77
2023-06-17T04:47:52.922Z,62.94
2023-06-17T04:50:21.772Z,63.62
2023-06-17T04:52:49.207Z,64.45
2023-06-17T04:55:19.984Z,64.41
2023-06-17T04:57:47.327Z,63.15
2023-06-17T05:00:21.578Z,62.26
2023-06-17T05:02:51.468Z,62.88
2023-06-17T05:05:19.090Z,63.50
2023-06-17T05:07:46.570Z,64.43
2023-06-17T05:10:15.473Z,64.08
2023-06-17T05:12:43.524Z,62.70
2023-06-17T05:15:11.426Z,62.26
2023-06-17T05:17:41.414Z,62.50
2023-06-17T05:20:10.418Z,62.95
2023-06-17T05:22:39.103Z,63.26
2023-06-17T05:25:06.726Z,64.43
2023-06-17T05:27:34.633Z,64.38
2023-06-17T05:30:02.219Z,62.91
2023-06-17T05:32:30.357Z,62.22
2023-06-17T05:34:57.346Z,62.54
2023-06-17T05:37:24.628Z,62.96
2023-06-17T05:39:51.875Z,63.64
2023-06-17T05:42:18.890Z,64.78
2023-06-17T05:44:47.474Z,64.63
2023-06-17T05:47:14.651Z,63.10
2023-06-17T05:49:42.788Z,62.51
2023-06-17T05:52:12.357Z,62.81
2023-06-17T05:54:40.447Z,63.18
2023-06-17T05:57:07.887Z,64.32
2023-06-17T05:59:36.060Z,64.37
2023-06-17T06:02:03.360Z,62.19
2023-06-17T06:04:31.910Z,62.42
2023-06-17T06:06:59.348Z,62.69
2023-06-17T06:09:27.360Z,63.12
2023-06-17T06:11:54.862Z,63.81
2023-06-17T06:14:22.418Z,63.53
2023-06-17T06:16:49.940Z,62.27
2023-06-17T06:19:17.034Z,61.87
2023-06-17T06:21:44.275Z,62.55
2023-06-17T06:24:11.699Z,62.86
2023-06-17T06:26:39.306Z,63.67
2023-06-17T06:29:08.593Z,63.55
2023-06-17T06:31:37.979Z,62.48
2023-06-17T06:34:05.027Z,61.67
2023-06-17T06:36:32.215Z,61.63
2023-06-17T06:38:59.378Z,62.21
2023-06-17T06:41:26.907Z,62.55
2023-06-17T06:44:02.600Z,63.50
2023-06-17T06:46:32.831Z,63.14
2023-06-17T06:49:00.435Z,61.87
2023-06-17T06:51:28.619Z,61.13
2023-06-17T06:53:56.373Z,61.64
2023-06-17T06:56:23.666Z,62.19
2023-06-17T06:58:51.143Z,62.99
2023-06-17T07:01:18.615Z,63.93
2023-06-17T07:03:46.470Z,63.77
2023-06-17T07:06:14.975Z,62.07
2023-06-17T07:08:42.757Z,61.57
2023-06-17T07:11:10.099Z,62.08
2023-06-17T07:13:37.538Z,62.41
2023-06-17T07:16:05.957Z,62.62
2023-06-17T07:18:33.329Z,63.58
2023-06-17T07:21:00.753Z,63.42
2023-06-17T07:23:27.935Z,61.91
2023-06-17T07:25:56.189Z,61.12
2023-06-17T07:28:26.027Z,61.53
2023-06-17T07:30:54.366Z,62.08
2023-06-17T07:33:27.909Z,62.41
2023-06-17T07:35:55.001Z,63.52
2023-06-17T07:38:24.038Z,63.29
2023-06-17T07:40:52.304Z,61.71
2023-06-17T07:43:20.047Z,61.00
2023-06-17T07:45:47.297Z,61.07
2023-06-17T07:48:14.604Z,61.61
2023-06-17T07:50:41.635Z,62.17
2023-06-17T07:53:08.937Z,63.12
2023-06-17T07:55:37.653Z,62.74
2023-06-17T07:58:04.826Z,60.52
2023-06-17T08:00:32.036Z,60.58
2023-06-17T08:02:59.701Z,61.03
2023-06-17T08:05:26.913Z,60.87
2023-06-17T08:07:55.034Z,61.69
2023-06-17T08:10:22.774Z,62.51
2023-06-17T08:12:50.456Z,62.49
2023-06-17T08:15:17.765Z,60.89
2023-06-17T08:17:45.999Z,60.55
2023-06-17T08:20:14.390Z,61.08
2023-06-17T08:22:41.722Z,61.58
2023-06-17T08:25:09.522Z,62.13
2023-06-17T08:27:38.668Z,63.23
2023-06-17T08:30:07.611Z,62.92
2023-06-17T08:32:35.151Z,61.38
2023-06-17T08:35:08.063Z,60.39
2023-06-17T08:37:35.802Z,60.89
2023-06-17T08:40:05.597Z,61.55
2023-06-17T08:42:33.184Z,62.08
2023-06-17T08:45:00.906Z,62.81
2023-06-17T08:47:28.241Z,62.25
2023-06-17T08:49:58.584Z,60.91
2023-06-17T08:52:26.139Z,60.24
2023-06-17T08:54:54.518Z,60.71
2023-06-17T08:57:21.817Z,60.72
2023-06-17T08:59:49.018Z,61.32
2023-06-17T09:02:17.021Z,62.55
2023-06-17T09:04:44.143Z,62.77
2023-06-17T09:07:11.715Z,61.45
2023-06-17T09:09:38.919Z,60.71
2023-06-17T09:12:07.170Z,60.48
2023-06-17T09:14:34.625Z,60.92
2023-06-17T09:17:02.525Z,60.96
2023-06-17T09:19:33.195Z,61.99
2023-06-17T09:22:09.844Z,61.81
2023-06-17T09:24:42.138Z,60.34
2023-06-17T09:27:10.722Z,60.07
2023-06-17T09:29:40.065Z,60.34
2023-06-17T09:32:07.358Z,61.11
2023-06-17T09:34:34.536Z,61.70
2023-06-17T09:37:01.988Z,62.46
2023-06-17T09:39:34.737Z,61.89
2023-06-17T09:42:10.381Z,60.70
2023-06-17T09:44:38.783Z,60.31
2023-06-17T09:47:07.660Z,60.36
2023-06-17T09:49:35.319Z,60.59
2023-06-17T09:52:03.892Z,61.23
2023-06-17T09:54:31.488Z,62.19
2023-06-17T09:56:59.667Z,61.41
2023-06-17T09:59:27.801Z,60.47
2023-06-17T10:01:56.001Z,60.03
2023-06-17T10:04:23.169Z,60.16
2023-06-17T10:06:51.250Z,60.70
2023-06-17T10:09:18.392Z,61.44
2023-06-17T10:11:47.060Z,62.37
2023-06-17T10:14:20.731Z,61.54
2023-06-17T10:16:48.942Z,59.63
2023-06-17T10:19:19.504Z,59.57
2023-06-17T10:21:47.613Z,60.07
2023-06-17T10:24:15.341Z,60.89
2023-06-17T10:26:42.528Z,61.43
2023-06-17T10:29:11.913Z,62.30
2023-06-17T10:31:40.934Z,61.93
2023-06-17T10:34:21.372Z,60.49
2023-06-17T10:36:56.027Z,59.64
2023-06-17T10:39:23.806Z,59.34
2023-06-17T10:41:52.603Z,59.58
2023-06-17T10:44:31.481Z,60.20
2023-06-17T10:46:59.328Z,60.92
2023-06-17T10:49:26.543Z,60.65
2023-06-17T10:51:59.260Z,59.51
2023-06-17T10:54:28.381Z,59.11
2023-06-17T10:56:55.879Z,59.02
2023-06-17T10:59:26.910Z,58.90
2023-06-17T11:02:02.664Z,60.14
2023-06-17T11:04:34.097Z,60.04
2023-06-17T11:07:01.762Z,60.42
2023-06-17T11:09:29.617Z,60.65
2023-06-17T11:11:58.291Z,59.07
2023-06-17T11:14:27.839Z,58.16
2023-06-17T11:16:55.546Z,58.35
2023-06-17T11:19:23.173Z,58.55
2023-06-17T11:21:58.658Z,59.07
2023-06-17T11:24:26.757Z,59.55
2023-06-17T11:26:55.365Z,61.04
2023-06-17T11:29:22.637Z,60.37
2023-06-17T11:31:49.861Z,58.38
2023-06-17T11:34:17.223Z,57.52
2023-06-17T11:36:44.395Z,57.20
2023-06-17T11:39:11.602Z,57.88
2023-06-17T11:41:39.248Z,58.45
2023-06-17T11:44:06.814Z,59.35
2023-06-17T11:46:37.292Z,60.63
2023-06-17T11:49:07.106Z,59.80
2023-06-17T11:51:35.126Z,57.37
2023-06-17T11:54:05.132Z,56.57
2023-06-17T11:56:35.685Z,57.10
2023-06-17T11:59:04.340Z,58.18
2023-06-17T12:01:31.728Z,58.76
2023-06-17T12:03:58.890Z,59.00
2023-06-17T12:06:28.303Z,58.86
2023-06-17T12:08:57.315Z,58.35
2023-06-17T12:11:30.557Z,56.75
2023-06-17T12:13:59.062Z,55.33
2023-06-17T12:16:34.755Z,55.21
2023-06-17T12:19:02.899Z,55.62
2023-06-17T12:21:30.006Z,55.42
2023-06-17T12:23:57.171Z,56.25
2023-06-17T12:26:27.477Z,56.75
2023-06-17T12:28:55.465Z,57.18
2023-06-17T12:31:23.610Z,56.22
2023-06-17T12:33:51.588Z,53.97
2023-06-17T12:36:19.038Z,53.87
2023-06-17T12:38:46.386Z,53.20
2023-06-17T12:41:13.910Z,54.33
2023-06-17T12:43:42.112Z,55.34
2023-06-17T12:46:09.781Z,56.01
2023-06-17T12:48:37.059Z,56.17
2023-06-17T12:51:08.118Z,57.25
2023-06-17T12:53:35.573Z,58.57
2023-06-17T12:56:02.796Z,58.19
2023-06-17T12:58:30.342Z,55.92
2023-06-17T13:00:57.624Z,55.30
2023-06-17T13:03:24.869Z,54.92
2023-06-17T13:05:54.907Z,55.60
2023-06-17T13:08:22.221Z,56.08
2023-06-17T13:10:49.356Z,56.34
2023-06-17T13:13:17.384Z,57.34
2023-06-17T13:15:45.464Z,57.89
2023-06-17T13:18:14.110Z,57.16
2023-06-17T13:20:41.845Z,56.26
2023-06-17T13:23:09.166Z,55.61
2023-06-17T13:25:37.380Z,55.69
2023-06-17T13:28:04.524Z,55.81
2023-06-17T13:30:32.844Z,56.09
2023-06-17T13:33:00.473Z,56.50
2023-06-17T13:35:27.602Z,56.72
2023-06-17T13:37:56.199Z,57.32
2023-06-17T13:40:24.004Z,57.14
2023-06-17T13:42:51.196Z,58.41
2023-06-17T13:45:19.176Z,57.69
2023-06-17T13:47:50.066Z,56.20
2023-06-17T13:50:17.273Z,54.70
2023-06-17T13:52:44.856Z,54.74
2023-06-17T13:55:12.285Z,54.66
2023-06-17T13:57:39.262Z,55.27
2023-06-17T14:00:07.536Z,55.38
2023-06-17T14:02:35.104Z,56.61
2023-06-17T14:05:04.628Z,56.94
2023-06-17T14:07:32.478Z,56.67
2023-06-17T14:09:59.986Z,57.84
2023-06-17T14:12:27.360Z,57.27
2023-06-17T14:14:55.326Z,55.93
2023-06-17T14:17:23.879Z,55.31
2023-06-17T14:19:51.246Z,55.70
2023-06-17T14:22:18.732Z,55.98
2023-06-17T14:24:46.998Z,56.64
2023-06-17T14:27:39.558Z,56.81
2023-06-17T14:30:14.212Z,57.54
2023-06-17T14:32:46.068Z,58.23
2023-06-17T14:35:14.814Z,58.54
2023-06-17T14:37:42.835Z,58.08
2023-06-17T14:40:10.847Z,56.92
2023-06-17T14:42:39.699Z,56.26
2023-06-17T14:45:11.679Z,56.52
2023-06-17T14:47:40.140Z,56.90
2023-06-17T14:50:08.199Z,57.77
2023-06-17T14:52:36.335Z,58.37
2023-06-17T14:55:04.454Z,58.27
2023-06-17T14:57:33.681Z,59.33
2023-06-17T15:00:01.896Z,58.89
2023-06-17T15:03:03.411Z,57.65
2023-06-17T15:05:36.467Z,57.18
2023-06-17T15:08:05.239Z,57.38
2023-06-17T15:10:32.778Z,57.61
2023-06-17T15:12:59.913Z,58.45
2023-06-17T15:15:28.201Z,58.76
2023-06-17T15:17:55.394Z,59.48
2023-06-17T15:20:22.856Z,59.11
2023-06-17T15:22:50.333Z,57.55
2023-06-17T15:25:17.657Z,57.28
2023-06-17T15:27:45.084Z,57.53
2023-06-17T15:30:12.710Z,57.58
2023-06-17T15:32:41.165Z,57.97
2023-06-17T15:35:08.391Z,58.48
2023-06-17T15:37:37.380Z,59.08
2023-06-17T15:40:06.874Z,58.63
2023-06-17T15:42:34.071Z,57.75
2023-06-17T15:45:01.660Z,57.15
2023-06-17T15:47:29.427Z,57.22
2023-06-17T15:49:56.586Z,57.59
2023-06-17T15:52:25.516Z,58.12
2023-06-17T15:54:53.331Z,58.69
2023-06-17T15:57:20.627Z,59.44
2023-06-17T15:59:47.854Z,58.98
2023-06-17T16:02:15.823Z,57.72
2023-06-17T16:04:43.914Z,57.25
2023-06-17T16:07:12.310Z,57.32
2023-06-17T16:09:46.270Z,58.00
2023-06-17T16:12:13.797Z,58.50
2023-06-17T16:14:42.516Z,58.80
2023-06-17T16:17:10.697Z,59.82
2023-06-17T16:19:38.445Z,59.41
2023-06-17T16:22:07.158Z,58.20
2023-06-17T16:24:34.469Z,57.85
2023-06-17T16:27:01.846Z,58.07
2023-06-17T16:29:29.726Z,58.83
2023-06-17T16:31:57.083Z,59.01
2023-06-17T16:34:24.174Z,59.62
2023-06-17T16:36:51.657Z,60.46
2023-06-17T16:39:18.982Z,60.02
2023-06-17T16:41:46.678Z,58.90
2023-06-17T16:44:13.848Z,58.57
2023-06-17T16:46:41.630Z,58.99
2023-06-17T16:49:14.447Z,59.66
2023-06-17T16:51:41.459Z,60.26
2023-06-17T16:54:09.301Z,61.16
2023-06-17T16:56:36.717Z,61.13
2023-06-17T16:59:03.735Z,59.93
2023-06-17T17:01:31.540Z,59.57
2023-06-17T17:04:00.225Z,59.97
2023-06-17T17:06:27.460Z,60.74
2023-06-17T17:08:55.001Z,61.21
2023-06-17T17:11:22.255Z,62.10
2023-06-17T17:13:50.184Z,62.03
2023-06-17T17:16:18.418Z,60.83
2023-06-17T17:18:46.823Z,60.13
2023-06-17T17:21:14.148Z,60.68
2023-06-17T17:23:41.734Z,61.29
2023-06-17T17:26:10.309Z,62.02
2023-06-17T17:28:37.798Z,62.76
2023-06-17T17:31:04.944Z,62.52
2023-06-17T17:33:33.964Z,60.89
2023-06-17T17:36:01.677Z,60.48
2023-06-17T17:38:28.742Z,60.99
2023-06-17T17:40:55.987Z,61.20
2023-06-17T17:43:24.374Z,61.82
2023-06-17T17:45:52.293Z,62.78
2023-06-17T17:48:19.483Z,62.49
2023-06-17T17:50:47.484Z,61.16
2023-06-17T17:53:14.906Z,60.75
2023-06-17T17:55:42.387Z,61.02
2023-06-17T17:58:09.739Z,61.30
2023-06-17T18:00:37.408Z,62.09
2023-06-17T18:03:04.643Z,62.92
2023-06-17T18:05:32.034Z,62.73
2023-06-17T18:07:59.548Z,61.48
2023-06-17T18:10:27.858Z,61.23
2023-06-17T18:12:55.083Z,61.52
2023-06-17T18:15:22.353Z,61.98
2023-06-17T18:17:49.801Z,62.57
2023-06-17T18:20:17.047Z,63.35
2023-06-17T18:22:44.223Z,62.68
2023-06-17T18:25:11.943Z,61.27
2023-06-17T18:27:42.415Z,61.17
2023-06-17T18:30:10.558Z,61.35
2023-06-17T18:32:37.984Z,61.64
2023-06-17T18:35:05.682Z,62.17
2023-06-17T18:37:32.812Z,63.10
2023-06-17T18:40:00.398Z,62.79
2023-06-17T18:42:27.856Z,61.27
2023-06-17T18:44:55.282Z,60.63
2023-06-17T18:47:22.815Z,61.13
2023-06-17T18:49:50.755Z,61.58
2023-06-17T18:52:19.386Z,61.80
2023-06-17T18:54:46.853Z,62.62
2023-06-17T18:57:14.920Z,62.50
2023-06-17T18:59:42.624Z,61.30
2023-06-17T19:02:09.970Z,60.77
2023-06-17T19:04:37.161Z,60.96
2023-06-17T19:07:04.974Z,61.36
2023-06-17T19:09:32.190Z,61.81
2023-06-17T19:12:01.136Z,62.89
2023-06-17T19:14:28.679Z,62.28
2023-06-17T19:16:56.548Z,60.90
2023-06-17T19:19:23.901Z,60.81
2023-06-17T19:21:51.146Z,61.07
2023-06-17T19:24:20.459Z,61.77
2023-06-17T19:26:47.881Z,62.51
2023-06-17T19:29:15.544Z,63.40
2023-06-17T19:31:42.664Z,63.16
2023-06-17T19:34:09.868Z,61.89
2023-06-17T19:36:37.765Z,61.12
2023-06-17T19:39:04.792Z,61.58
2023-06-17T19:41:32.050Z,62.15
2023-06-17T19:43:59.363Z,62.81
2023-06-17T19:46:26.826Z,63.71
2023-06-17T19:48:54.198Z,63.63
2023-06-17T19:51:21.676Z,62.18
2023-06-17T19:53:51.494Z,61.76
2023-06-17T19:56:19.687Z,61.72
2023-06-17T20:00:55.083Z,63.36
2023-06-17T20:03:22.438Z,63.71
2023-06-17T20:05:49.649Z,63.41
2023-06-17T20:08:17.035Z,62.04
2023-06-17T20:10:44.396Z,61.62
2023-06-17T20:13:11.862Z,61.73
2023-06-17T20:15:40.248Z,62.21
2023-06-17T20:18:08.856Z,62.57
2023-06-17T20:20:36.872Z,63.75
2023-06-17T20:23:03.912Z,63.61
2023-06-17T20:25:32.185Z,62.21
2023-06-17T20:27:59.514Z,61.79
2023-06-17T20:30:26.834Z,62.07
2023-06-17T20:32:54.122Z,62.33
2023-06-17T20:35:21.526Z,62.93
2023-06-17T20:37:49.411Z,63.81
2023-06-17T20:40:16.847Z,63.69
2023-06-17T20:42:44.190Z,62.43
2023-06-17T20:45:11.801Z,61.95
2023-06-17T20:47:39.312Z,62.10
2023-06-17T20:50:07.098Z,62.59
2023-06-17T20:52:34.441Z,63.29
2023-06-17T20:55:01.920Z,64.07
2023-06-17T20:57:29.449Z,63.89
2023-06-17T20:59:56.692Z,62.52
2023-06-17T21:02:23.902Z,61.99
2023-06-17T21:04:52.772Z,62.18
2023-06-17T21:07:20.131Z,62.51
2023-06-17T21:09:48.455Z,62.92
2023-06-17T21:12:16.038Z,63.69
2023-06-17T21:14:44.032Z,63.77
2023-06-17T21:17:11.290Z,62.43
2023-06-17T21:19:38.731Z,61.46
2023-06-17T21:22:06.393Z,61.55
2023-06-17T21:24:35.453Z,60.81
2023-06-17T21:27:03.316Z,63.20
2023-06-17T21:29:31.152Z,64.35
2023-06-17T21:31:58.459Z,62.77
2023-06-17T21:34:25.683Z,62.26
2023-06-17T21:36:53.058Z,62.03
2023-06-17T21:39:20.649Z,61.78
2023-06-17T21:41:47.863Z,62.58
2023-06-17T21:44:15.251Z,63.41
2023-06-17T21:46:42.525Z,64.30
2023-06-17T21:49:10.249Z,63.92
2023-06-17T21:51:37.528Z,62.66
2023-06-17T21:54:04.939Z,62.39
2023-06-17T21:56:32.480Z,62.53
2023-06-17T21:58:59.685Z,63.13
2023-06-17T22:01:27.244Z,64.02
2023-06-17T22:03:54.402Z,64.16
2023-06-17T22:06:21.727Z,62.43
2023-06-17T22:08:48.857Z,62.35
2023-06-17T22:11:16.253Z,62.66
2023-06-17T22:13:44.213Z,63.22
2023-06-17T22:16:12.661Z,64.04
2023-06-17T22:18:40.066Z,63.47
2023-06-17T22:21:07.428Z,62.71
2023-06-17T22:23:34.636Z,62.22
2023-06-17T22:26:01.808Z,62.59
2023-06-17T22:28:29.802Z,63.24
2023-06-17T22:30:56.955Z,63.84
2023-06-17T22:33:24.464Z,64.09
2023-06-17T22:35:51.557Z,62.91
2023-06-17T22:38:20.010Z,62.43
2023-06-17T22:40:47.300Z,62.54
2023-06-17T22:43:16.350Z,63.39
2023-06-17T22:45:43.418Z,64.10
2023-06-17T22:48:10.833Z,64.10
2023-06-17T22:50:38.018Z,62.70
2023-06-17T22:53:05.334Z,62.46
2023-06-17T22:55:32.786Z,62.83
2023-06-17T22:57:59.944Z,63.37
2023-06-17T23:00:27.804Z,64.37
2023-06-17T23:02:55.452Z,64.32
2023-06-17T23:05:23.457Z,63.27
2023-06-17T23:07:50.507Z,62.79
2023-06-17T23:10:17.767Z,62.99
2023-06-17T23:12:45.022Z,63.45
2023-06-17T23:15:12.336Z,63.93
2023-06-17T23:17:39.876Z,64.95
2023-06-17T23:20:10.251Z,64.67
2023-06-17T23:22:37.794Z,63.30
2023-06-17T23:25:07.847Z,62.78
2023-06-17T23:27:37.905Z,63.14
2023-06-17T23:30:06.213Z,63.62
2023-06-17T23:32:34.441Z,64.33
2023-06-17T23:35:01.849Z,64.27
2023-06-17T23:37:29.834Z,62.86
2023-06-17T23:39:57.049Z,62.62
2023-06-17T23:42:24.210Z,63.05
2023-06-17T23:44:52.217Z,63.56
2023-06-17T23:47:19.799Z,64.43
2023-06-17T23:49:47.268Z,64.53
2023-06-17T23:52:14.583Z,63.17
2023-06-17T23:54:42.035Z,62.84
2023-06-17T23:57:09.258Z,62.99
2023-06-17T23:59:36.784Z,63.61
